createdAt,value
2023-03-31T00:00:21.230Z,8.86
2023-03-31T00:00:51.240Z,8.89
2023-03-31T00:01:21.245Z,8.94
2023-03-31T00:01:51.235Z,9
2023-03-31T00:02:21.278Z,9.05
2023-03-31T00:02:51.290Z,9.01
2023-03-31T00:03:21.402Z,8.97
2023-03-31T00:03:51.344Z,8.95
2023-03-31T00:04:21.269Z,8.87
2023-03-31T00:04:51.258Z,8.8
2023-03-31T00:05:21.231Z,8.79
2023-03-31T00:05:51.232Z,8.76
2023-03-31T00:06:21.233Z,8.69
2023-03-31T00:06:51.229Z,8.66
2023-03-31T00:07:21.231Z,8.7
2023-03-31T00:07:51.232Z,8.63
2023-03-31T00:08:21.271Z,8.59
2023-03-31T00:08:51.310Z,8.57
2023-03-31T00:09:21.232Z,8.58
2023-03-31T00:09:51.231Z,8.55
2023-03-31T00:10:21.227Z,8.53
2023-03-31T00:10:51.235Z,8.56
2023-03-31T00:11:21.242Z,8.61
2023-03-31T00:11:51.231Z,8.7
2023-03-31T00:12:21.230Z,8.73
2023-03-31T00:12:51.230Z,8.71
2023-03-31T00:13:21.240Z,8.74
2023-03-31T00:13:51.248Z,8.73
2023-03-31T00:14:21.236Z,8.62
2023-03-31T00:14:51.243Z,8.58
2023-03-31T00:15:21.234Z,8.56
2023-03-31T00:15:52.354Z,8.48
2023-03-31T00:16:21.261Z,8.4
2023-03-31T00:16:51.343Z,8.35
2023-03-31T00:17:21.241Z,8.34
2023-03-31T00:17:51.286Z,8.36
2023-03-31T00:18:21.236Z,8.39
2023-03-31T00:18:51.492Z,8.42
2023-03-31T00:19:21.315Z,8.46
2023-03-31T00:19:51.235Z,8.5
2023-03-31T00:20:21.233Z,8.47
2023-03-31T00:20:51.234Z,8.42
2023-03-31T00:21:21.231Z,8.39
2023-03-31T00:21:51.233Z,8.41
2023-03-31T00:22:21.234Z,8.46
2023-03-31T00:22:51.234Z,8.44
2023-03-31T00:23:21.234Z,8.39
2023-03-31T00:23:51.240Z,8.38
2023-03-31T00:24:21.250Z,8.4
2023-03-31T00:24:51.234Z,8.41
2023-03-31T00:25:21.235Z,8.4
2023-03-31T00:25:51.239Z,8.39
2023-03-31T00:26:21.235Z,8.38
2023-03-31T00:26:51.233Z,8.34
2023-03-31T00:27:21.231Z,8.32
2023-03-31T00:27:51.233Z,8.27
2023-03-31T00:28:21.242Z,8.22
2023-03-31T00:28:51.287Z,8.15
2023-03-31T00:29:21.240Z,8.1
2023-03-31T00:29:51.235Z,8.09
2023-03-31T00:30:21.241Z,8.09
2023-03-31T00:30:51.244Z,8.11
2023-03-31T00:31:21.273Z,8.13
2023-03-31T00:31:51.252Z,8.18
2023-03-31T00:32:21.231Z,8.17
2023-03-31T00:32:51.281Z,8.17
2023-03-31T00:33:21.254Z,8.18
2023-03-31T00:33:51.242Z,8.22
2023-03-31T00:34:21.243Z,8.24
2023-03-31T00:34:51.234Z,8.26
2023-03-31T00:35:21.234Z,8.26
2023-03-31T00:35:51.285Z,8.22
2023-03-31T00:36:21.387Z,8.16
2023-03-31T00:36:51.241Z,8.11
2023-03-31T00:37:21.231Z,8.09
2023-03-31T00:37:51.236Z,8.07
2023-03-31T00:38:21.238Z,8.1
2023-03-31T00:38:51.235Z,8.07
2023-03-31T00:39:21.237Z,8.06
2023-03-31T00:39:51.243Z,8.02
2023-03-31T00:40:21.234Z,8.02
2023-03-31T00:40:53.819Z,8.05
2023-03-31T00:41:21.240Z,8.06
2023-03-31T00:41:51.238Z,8.1
2023-03-31T00:42:21.232Z,8.1
2023-03-31T00:42:51.231Z,8.12
2023-03-31T00:43:21.229Z,8.11
2023-03-31T00:43:51.229Z,8.17
2023-03-31T00:44:21.238Z,8.22
2023-03-31T00:44:51.245Z,8.24
2023-03-31T00:45:21.234Z,8.28
2023-03-31T00:45:51.336Z,8.28
2023-03-31T00:46:21.388Z,8.25
2023-03-31T00:46:51.258Z,8.27
2023-03-31T00:47:21.273Z,8.25
2023-03-31T00:47:51.254Z,8.25
2023-03-31T00:48:21.241Z,8.27
2023-03-31T00:48:51.251Z,8.35
2023-03-31T00:49:21.236Z,8.33
2023-03-31T00:49:51.236Z,8.34
2023-03-31T00:50:21.247Z,8.34
2023-03-31T00:50:51.242Z,8.27
2023-03-31T00:51:21.232Z,8.17
2023-03-31T00:51:51.245Z,8.13
2023-03-31T00:52:21.232Z,8.12
2023-03-31T00:52:51.240Z,8.14
2023-03-31T00:53:21.243Z,8.17
2023-03-31T00:53:51.238Z,8.13
2023-03-31T00:54:21.232Z,8.11
2023-03-31T00:54:51.243Z,8.08
2023-03-31T00:55:21.240Z,8.03
2023-03-31T00:55:51.263Z,8.08
2023-03-31T00:56:21.239Z,8.07
2023-03-31T00:56:51.247Z,8.1
2023-03-31T00:57:21.291Z,8.13
2023-03-31T00:57:51.231Z,8.17
2023-03-31T00:58:21.230Z,8.11
2023-03-31T00:58:51.240Z,8.1
2023-03-31T00:59:21.236Z,8.04
2023-03-31T00:59:51.255Z,8.07
2023-03-31T01:00:21.243Z,8.12
2023-03-31T01:00:51.287Z,8.19
2023-03-31T01:01:21.303Z,8.23
2023-03-31T01:01:51.237Z,8.24
2023-03-31T01:02:21.284Z,8.23
2023-03-31T01:02:51.317Z,8.27
2023-03-31T01:03:21.280Z,8.22
2023-03-31T01:03:51.274Z,8.24
2023-03-31T01:04:21.234Z,8.3
2023-03-31T01:04:51.236Z,8.31
2023-03-31T01:05:21.241Z,8.37
2023-03-31T01:05:51.250Z,8.36
2023-03-31T01:06:21.240Z,8.41
2023-03-31T01:06:51.239Z,8.48
2023-03-31T01:07:21.233Z,8.53
2023-03-31T01:07:51.241Z,8.58
2023-03-31T01:08:21.239Z,8.52
2023-03-31T01:08:51.254Z,8.45
2023-03-31T01:09:21.236Z,8.4
2023-03-31T01:09:51.235Z,8.36
2023-03-31T01:10:21.238Z,8.28
2023-03-31T01:10:51.246Z,8.24
2023-03-31T01:11:21.234Z,8.26
2023-03-31T01:11:51.245Z,8.31
2023-03-31T01:12:21.237Z,8.39
2023-03-31T01:12:51.235Z,8.45
2023-03-31T01:13:21.237Z,8.48
2023-03-31T01:13:51.237Z,8.52
2023-03-31T01:14:21.236Z,8.54
2023-03-31T01:14:51.256Z,8.5
2023-03-31T01:15:21.255Z,8.5
2023-03-31T01:15:51.256Z,8.52
2023-03-31T01:16:21.241Z,8.56
2023-03-31T01:16:51.372Z,8.61
2023-03-31T01:17:21.422Z,8.59
2023-03-31T01:17:51.419Z,8.53
2023-03-31T01:18:21.390Z,8.44
2023-03-31T01:18:51.260Z,8.38
2023-03-31T01:19:21.240Z,8.31
2023-03-31T01:19:51.240Z,8.26
2023-03-31T01:20:21.272Z,8.28
2023-03-31T01:20:51.280Z,8.35
2023-03-31T01:21:21.243Z,8.45
2023-03-31T01:21:51.260Z,8.46
2023-03-31T01:22:21.238Z,8.48
2023-03-31T01:22:51.241Z,8.49
2023-03-31T01:23:21.264Z,8.52
2023-03-31T01:23:51.246Z,8.62
2023-03-31T01:24:21.242Z,8.67
2023-03-31T01:24:51.238Z,8.67
2023-03-31T01:25:21.236Z,8.66
2023-03-31T01:25:51.241Z,8.62
2023-03-31T01:26:21.248Z,8.6
2023-03-31T01:26:51.254Z,8.65
2023-03-31T01:27:21.243Z,8.65
2023-03-31T01:27:51.239Z,8.6
2023-03-31T01:28:21.239Z,8.49
2023-03-31T01:28:51.238Z,8.44
2023-03-31T01:29:21.240Z,8.43
2023-03-31T01:29:51.255Z,8.39
2023-03-31T01:30:21.251Z,8.34
2023-03-31T01:30:51.258Z,8.3
2023-03-31T01:31:21.274Z,8.31
2023-03-31T01:31:51.290Z,8.34
2023-03-31T01:32:21.246Z,8.34
2023-03-31T01:32:51.284Z,8.28
2023-03-31T01:33:21.245Z,8.27
2023-03-31T01:33:51.243Z,8.27
2023-03-31T01:34:21.241Z,8.33
2023-03-31T01:34:51.239Z,8.41
2023-03-31T01:35:21.247Z,8.48
2023-03-31T01:35:51.283Z,8.52
2023-03-31T01:36:21.243Z,8.53
2023-03-31T01:36:51.245Z,8.5
2023-03-31T01:37:21.281Z,8.4
2023-03-31T01:37:51.245Z,8.31
2023-03-31T01:38:21.243Z,8.28
2023-03-31T01:38:51.261Z,8.25
2023-03-31T01:39:21.244Z,8.24
2023-03-31T01:39:51.241Z,8.23
2023-03-31T01:40:21.257Z,8.17
2023-03-31T01:40:51.240Z,8.13
2023-03-31T01:41:21.241Z,8.07
2023-03-31T01:41:51.256Z,8.07
2023-03-31T01:42:21.250Z,8.06
2023-03-31T01:42:51.240Z,8.06
2023-03-31T01:43:21.241Z,8.08
2023-03-31T01:43:51.242Z,8.12
2023-03-31T01:44:21.244Z,8.13
2023-03-31T01:44:51.265Z,8.16
2023-03-31T01:45:21.251Z,8.14
2023-03-31T01:45:51.296Z,8.08
2023-03-31T01:46:21.334Z,8.06
2023-03-31T01:46:51.278Z,8.02
2023-03-31T01:47:21.250Z,7.99
2023-03-31T01:47:51.284Z,7.98
2023-03-31T01:48:21.286Z,8.02
2023-03-31T01:48:51.249Z,8.02
2023-03-31T01:49:21.240Z,8.02
2023-03-31T01:49:51.240Z,8.06
2023-03-31T01:50:21.255Z,8.14
2023-03-31T01:50:51.240Z,8.2
2023-03-31T01:51:21.251Z,8.24
2023-03-31T01:51:51.294Z,8.23
2023-03-31T01:52:21.278Z,8.2
2023-03-31T01:52:51.240Z,8.17
2023-03-31T01:53:21.252Z,8.15
2023-03-31T01:53:51.244Z,8.11
2023-03-31T01:54:21.244Z,8.13
2023-03-31T01:54:51.242Z,8.14
2023-03-31T01:55:21.244Z,8.17
2023-03-31T01:55:51.245Z,8.16
2023-03-31T01:56:21.253Z,8.17
2023-03-31T01:56:51.263Z,8.18
2023-03-31T01:57:21.292Z,8.2
2023-03-31T01:57:51.244Z,8.2
2023-03-31T01:58:21.247Z,8.14
2023-03-31T01:58:51.244Z,8.15
2023-03-31T01:59:21.245Z,8.15
2023-03-31T01:59:51.260Z,8.15
2023-03-31T02:00:21.246Z,8.06
2023-03-31T02:00:51.249Z,7.95
2023-03-31T02:01:21.267Z,7.89
2023-03-31T02:01:51.602Z,7.86
2023-03-31T02:02:21.278Z,7.79
2023-03-31T02:02:51.305Z,7.75
2023-03-31T02:03:21.315Z,7.75
2023-03-31T02:03:51.279Z,7.76
2023-03-31T02:04:21.242Z,7.69
2023-03-31T02:04:51.246Z,7.6
2023-03-31T02:05:21.250Z,7.53
2023-03-31T02:05:51.262Z,7.53
2023-03-31T02:06:21.245Z,7.52
2023-03-31T02:06:51.242Z,7.48
2023-03-31T02:07:21.243Z,7.45
2023-03-31T02:07:51.250Z,7.47
2023-03-31T02:08:21.248Z,7.48
2023-03-31T02:08:51.245Z,7.53
2023-03-31T02:09:21.256Z,7.57
2023-03-31T02:09:51.255Z,7.56
2023-03-31T02:10:21.249Z,7.54
2023-03-31T02:10:51.249Z,7.56
2023-03-31T02:11:21.253Z,7.58
2023-03-31T02:11:51.251Z,7.59
2023-03-31T02:12:21.246Z,7.61
2023-03-31T02:12:51.250Z,7.58
2023-03-31T02:13:21.244Z,7.56
2023-03-31T02:13:51.246Z,7.56
2023-03-31T02:14:21.250Z,7.55
2023-03-31T02:14:51.250Z,7.58
2023-03-31T02:15:21.249Z,7.62
2023-03-31T02:15:51.287Z,7.66
2023-03-31T02:16:21.292Z,7.7
2023-03-31T02:16:51.319Z,7.68
2023-03-31T02:17:21.283Z,7.71
2023-03-31T02:17:51.291Z,7.73
2023-03-31T02:18:21.243Z,7.73
2023-03-31T02:18:51.248Z,7.75
2023-03-31T02:19:21.252Z,7.76
2023-03-31T02:19:51.243Z,7.75
2023-03-31T02:20:21.248Z,7.73
2023-03-31T02:20:51.245Z,7.68
2023-03-31T02:21:21.249Z,7.63
2023-03-31T02:21:51.249Z,7.54
2023-03-31T02:22:21.251Z,7.53
2023-03-31T02:22:51.245Z,7.56
2023-03-31T02:23:21.251Z,7.54
2023-03-31T02:23:51.250Z,7.56
2023-03-31T02:24:21.254Z,7.59
2023-03-31T02:24:51.253Z,7.57
2023-03-31T02:25:21.248Z,7.56
2023-03-31T02:25:51.253Z,7.53
2023-03-31T02:26:21.297Z,7.53
2023-03-31T02:26:51.245Z,7.53
2023-03-31T02:27:21.254Z,7.56
2023-03-31T02:27:51.249Z,7.63
2023-03-31T02:28:21.288Z,7.64
2023-03-31T02:28:51.248Z,7.65
2023-03-31T02:29:21.253Z,7.66
2023-03-31T02:29:51.257Z,7.67
2023-03-31T02:30:21.254Z,7.66
2023-03-31T02:30:51.254Z,7.61
2023-03-31T02:31:21.279Z,7.58
2023-03-31T02:31:51.289Z,7.55
2023-03-31T02:32:21.247Z,7.52
2023-03-31T02:32:51.272Z,7.49
2023-03-31T02:33:21.249Z,7.44
2023-03-31T02:33:51.254Z,7.41
2023-03-31T02:34:21.247Z,7.37
2023-03-31T02:34:51.250Z,7.37
2023-03-31T02:35:21.250Z,7.43
2023-03-31T02:35:51.322Z,7.5
2023-03-31T02:36:21.270Z,7.52
2023-03-31T02:36:51.262Z,7.56
2023-03-31T02:37:21.247Z,7.64
2023-03-31T02:37:51.246Z,7.66
2023-03-31T02:38:21.246Z,7.61
2023-03-31T02:38:51.260Z,7.61
2023-03-31T02:39:21.273Z,7.58
2023-03-31T02:39:51.258Z,7.57
2023-03-31T02:40:21.250Z,7.6
2023-03-31T02:40:51.259Z,7.54
2023-03-31T02:41:21.249Z,7.49
2023-03-31T02:41:51.249Z,7.54
2023-03-31T02:42:21.249Z,7.56
2023-03-31T02:42:51.249Z,7.64
2023-03-31T02:43:21.257Z,7.7
2023-03-31T02:43:51.261Z,7.73
2023-03-31T02:44:21.262Z,7.72
2023-03-31T02:44:51.251Z,7.73
2023-03-31T02:45:21.257Z,7.74
2023-03-31T02:45:51.362Z,7.78
2023-03-31T02:46:21.301Z,7.78
2023-03-31T02:46:51.252Z,7.72
2023-03-31T02:47:21.307Z,7.6
2023-03-31T02:47:51.289Z,7.52
2023-03-31T02:48:21.266Z,7.49
2023-03-31T02:48:51.251Z,7.51
2023-03-31T02:49:21.254Z,7.57
2023-03-31T02:49:51.251Z,7.59
2023-03-31T02:50:21.252Z,7.53
2023-03-31T02:50:51.255Z,7.53
2023-03-31T02:51:21.257Z,7.55
2023-03-31T02:51:51.250Z,7.52
2023-03-31T02:52:21.250Z,7.54
2023-03-31T02:52:51.255Z,7.54
2023-03-31T02:53:21.370Z,7.5
2023-03-31T02:53:51.254Z,7.51
2023-03-31T02:54:21.250Z,7.51
2023-03-31T02:54:51.253Z,7.54
2023-03-31T02:55:21.260Z,7.54
2023-03-31T02:55:51.253Z,7.57
2023-03-31T02:56:21.258Z,7.59
2023-03-31T02:56:51.293Z,7.63
2023-03-31T02:57:21.356Z,7.68
2023-03-31T02:57:51.253Z,7.71
2023-03-31T02:58:21.253Z,7.78
2023-03-31T02:58:51.254Z,7.85
2023-03-31T02:59:21.269Z,7.93
2023-03-31T02:59:51.257Z,7.97
2023-03-31T03:00:21.275Z,8.06
2023-03-31T03:00:51.296Z,8.11
2023-03-31T03:01:21.332Z,8.08
2023-03-31T03:01:51.264Z,8.11
2023-03-31T03:02:21.318Z,8.13
2023-03-31T03:02:51.353Z,8.1
2023-03-31T03:03:21.325Z,8.15
2023-03-31T03:03:51.252Z,8.19
2023-03-31T03:04:21.267Z,8.23
2023-03-31T03:04:51.252Z,8.24
2023-03-31T03:05:21.255Z,8.23
2023-03-31T03:05:51.252Z,8.22
2023-03-31T03:06:21.266Z,8.24
2023-03-31T03:06:51.253Z,8.27
2023-03-31T03:07:21.252Z,8.32
2023-03-31T03:07:51.255Z,8.36
2023-03-31T03:08:21.253Z,8.32
2023-03-31T03:08:51.261Z,8.31
2023-03-31T03:09:21.255Z,8.36
2023-03-31T03:09:51.255Z,8.41
2023-03-31T03:10:21.258Z,8.44
2023-03-31T03:10:51.264Z,8.45
2023-03-31T03:11:21.263Z,8.44
2023-03-31T03:11:51.260Z,8.38
2023-03-31T03:12:21.256Z,8.37
2023-03-31T03:12:51.256Z,8.34
2023-03-31T03:13:21.264Z,8.29
2023-03-31T03:13:51.255Z,8.22
2023-03-31T03:14:21.259Z,8.21
2023-03-31T03:14:51.263Z,8.14
2023-03-31T03:15:21.266Z,8.09
2023-03-31T03:15:51.292Z,8.06
2023-03-31T03:16:21.285Z,8.06
2023-03-31T03:16:51.285Z,8.08
2023-03-31T03:17:21.259Z,8.08
2023-03-31T03:17:51.284Z,8.09
2023-03-31T03:18:21.256Z,8.14
2023-03-31T03:18:51.256Z,8.11
2023-03-31T03:19:21.259Z,8.05
2023-03-31T03:19:51.262Z,8.07
2023-03-31T03:20:21.258Z,8.1
2023-03-31T03:20:51.259Z,8.14
2023-03-31T03:21:21.259Z,8.2
2023-03-31T03:21:51.264Z,8.17
2023-03-31T03:22:21.257Z,8.17
2023-03-31T03:22:51.266Z,8.16
2023-03-31T03:23:21.256Z,8.12
2023-03-31T03:23:51.261Z,8.07
2023-03-31T03:24:21.262Z,8.1
2023-03-31T03:24:51.260Z,8.14
2023-03-31T03:25:21.271Z,8.2
2023-03-31T03:25:51.276Z,8.17
2023-03-31T03:26:21.256Z,8.19
2023-03-31T03:26:51.259Z,8.19
2023-03-31T03:27:21.262Z,8.23
2023-03-31T03:27:51.261Z,8.23
2023-03-31T03:28:21.270Z,8.21
2023-03-31T03:28:51.303Z,8.24
2023-03-31T03:29:21.262Z,8.24
2023-03-31T03:29:51.263Z,8.21
2023-03-31T03:30:21.269Z,8.2
2023-03-31T03:30:51.306Z,8.24
2023-03-31T03:31:21.283Z,8.34
2023-03-31T03:31:51.260Z,8.35
2023-03-31T03:32:21.257Z,8.36
2023-03-31T03:32:51.343Z,8.32
2023-03-31T03:33:21.298Z,8.27
2023-03-31T03:33:51.263Z,8.26
2023-03-31T03:34:21.264Z,8.3
2023-03-31T03:34:51.266Z,8.31
2023-03-31T03:35:21.262Z,8.38
2023-03-31T03:35:51.298Z,8.41
2023-03-31T03:36:21.312Z,8.43
2023-03-31T03:36:51.261Z,8.45
2023-03-31T03:37:21.259Z,8.45
2023-03-31T03:37:51.265Z,8.46
2023-03-31T03:38:21.264Z,8.47
2023-03-31T03:38:51.282Z,8.48
2023-03-31T03:39:21.266Z,8.45
2023-03-31T03:39:51.259Z,8.37
2023-03-31T03:40:21.266Z,8.32
2023-03-31T03:40:51.260Z,8.18
2023-03-31T03:41:21.263Z,8.07
2023-03-31T03:41:51.265Z,7.98
2023-03-31T03:42:21.265Z,8.03
2023-03-31T03:42:51.263Z,8.09
2023-03-31T03:43:21.266Z,8.19
2023-03-31T03:43:51.267Z,8.2
2023-03-31T03:44:21.268Z,8.21
2023-03-31T03:44:51.263Z,8.18
2023-03-31T03:45:21.262Z,8.11
2023-03-31T03:45:51.284Z,8.1
2023-03-31T03:46:21.307Z,8.12
2023-03-31T03:46:51.302Z,8.11
2023-03-31T03:47:21.267Z,8.04
2023-03-31T03:47:51.290Z,8.01
2023-03-31T03:48:21.264Z,8.03
2023-03-31T03:48:51.265Z,8.07
2023-03-31T03:49:21.263Z,8.07
2023-03-31T03:49:51.263Z,8.06
2023-03-31T03:50:21.262Z,7.99
2023-03-31T03:50:51.269Z,7.94
2023-03-31T03:51:21.262Z,7.88
2023-03-31T03:51:51.266Z,7.87
2023-03-31T03:52:21.264Z,7.86
2023-03-31T03:52:51.271Z,7.84
2023-03-31T03:53:21.265Z,7.8
2023-03-31T03:53:51.263Z,7.8
2023-03-31T03:54:21.266Z,7.8
2023-03-31T03:54:51.265Z,7.79
2023-03-31T03:55:21.271Z,7.8
2023-03-31T03:55:51.259Z,7.81
2023-03-31T03:56:21.271Z,7.83
2023-03-31T03:56:51.279Z,7.83
2023-03-31T03:57:21.321Z,7.87
2023-03-31T03:57:51.264Z,7.84
2023-03-31T03:58:21.270Z,7.78
2023-03-31T03:58:51.283Z,7.68
2023-03-31T03:59:21.297Z,7.63
2023-03-31T03:59:51.275Z,7.62
2023-03-31T04:00:21.263Z,7.6
2023-03-31T04:00:51.268Z,7.57
2023-03-31T04:01:21.258Z,7.56
2023-03-31T04:01:51.316Z,7.57
2023-03-31T04:02:21.288Z,7.62
2023-03-31T04:02:51.296Z,7.66
2023-03-31T04:03:21.289Z,7.63
2023-03-31T04:03:51.259Z,7.63
2023-03-31T04:04:21.262Z,7.7
2023-03-31T04:04:51.265Z,7.72
2023-03-31T04:05:21.345Z,7.7
2023-03-31T04:05:51.263Z,7.67
2023-03-31T04:06:21.266Z,7.64
2023-03-31T04:06:51.265Z,7.59
2023-03-31T04:07:21.264Z,7.52
2023-03-31T04:07:51.281Z,7.54
2023-03-31T04:08:21.258Z,7.57
2023-03-31T04:08:51.262Z,7.61
2023-03-31T04:09:21.256Z,7.68
2023-03-31T04:09:51.255Z,7.77
2023-03-31T04:10:21.261Z,7.81
2023-03-31T04:10:51.261Z,7.84
2023-03-31T04:11:21.272Z,7.86
2023-03-31T04:11:51.260Z,7.78
2023-03-31T04:12:21.258Z,7.77
2023-03-31T04:12:51.261Z,7.8
2023-03-31T04:13:21.273Z,7.8
2023-03-31T04:13:51.269Z,7.81
2023-03-31T04:14:21.266Z,7.82
2023-03-31T04:14:51.264Z,7.8
2023-03-31T04:15:21.256Z,7.79
2023-03-31T04:15:51.293Z,7.8
2023-03-31T04:16:21.275Z,7.8
2023-03-31T04:16:51.261Z,7.81
2023-03-31T04:17:21.262Z,7.83
2023-03-31T04:17:51.325Z,7.81
2023-03-31T04:18:21.258Z,7.79
2023-03-31T04:18:51.259Z,7.8
2023-03-31T04:19:21.261Z,7.82
2023-03-31T04:19:51.258Z,7.86
2023-03-31T04:20:21.270Z,7.84
2023-03-31T04:20:51.261Z,7.79
2023-03-31T04:21:21.256Z,7.76
2023-03-31T04:21:51.268Z,7.73
2023-03-31T04:22:21.269Z,7.69
2023-03-31T04:22:51.258Z,7.69
2023-03-31T04:23:21.258Z,7.73
2023-03-31T04:23:51.261Z,7.77
2023-03-31T04:24:21.606Z,7.81
2023-03-31T04:24:51.258Z,7.85
2023-03-31T04:25:21.269Z,7.87
2023-03-31T04:25:51.258Z,7.87
2023-03-31T04:26:21.258Z,7.86
2023-03-31T04:26:51.315Z,7.81
2023-03-31T04:27:21.275Z,7.83
2023-03-31T04:27:51.281Z,7.84
2023-03-31T04:28:21.264Z,7.82
2023-03-31T04:28:51.263Z,7.86
2023-03-31T04:29:21.257Z,7.86
2023-03-31T04:29:51.260Z,7.83
2023-03-31T04:30:21.261Z,7.88
2023-03-31T04:30:51.260Z,7.95
2023-03-31T04:31:21.302Z,7.99
2023-03-31T04:31:51.309Z,8.1
2023-03-31T04:32:21.260Z,8.17
2023-03-31T04:32:51.269Z,8.23
2023-03-31T04:33:21.259Z,8.25
2023-03-31T04:33:51.262Z,8.32
2023-03-31T04:34:21.277Z,8.4
2023-03-31T04:34:51.394Z,8.48
2023-03-31T04:35:21.259Z,8.56
2023-03-31T04:35:51.273Z,8.65
2023-03-31T04:36:21.264Z,8.68
2023-03-31T04:36:51.257Z,8.7
2023-03-31T04:37:21.256Z,8.73
2023-03-31T04:37:51.259Z,8.75
2023-03-31T04:38:21.270Z,8.79
2023-03-31T04:38:52.111Z,8.7
2023-03-31T04:39:21.258Z,8.71
2023-03-31T04:39:51.262Z,8.79
2023-03-31T04:40:21.262Z,8.85
2023-03-31T04:40:51.259Z,8.84
2023-03-31T04:41:21.262Z,8.83
2023-03-31T04:41:51.269Z,8.86
2023-03-31T04:42:21.260Z,8.87
2023-03-31T04:42:51.268Z,8.81
2023-03-31T04:43:21.257Z,8.73
2023-03-31T04:43:51.265Z,8.65
2023-03-31T04:44:21.259Z,8.6
2023-03-31T04:44:51.265Z,8.6
2023-03-31T04:45:21.264Z,8.62
2023-03-31T04:45:51.287Z,8.64
2023-03-31T04:46:21.294Z,8.63
2023-03-31T04:46:51.265Z,8.69
2023-03-31T04:47:21.279Z,8.73
2023-03-31T04:47:51.298Z,8.83
2023-03-31T04:48:21.263Z,8.88
2023-03-31T04:48:51.281Z,8.88
2023-03-31T04:49:21.269Z,8.94
2023-03-31T04:49:51.259Z,8.95
2023-03-31T04:50:21.261Z,9.01
2023-03-31T04:50:51.270Z,8.99
2023-03-31T04:51:21.275Z,8.96
2023-03-31T04:51:51.261Z,8.98
2023-03-31T04:52:21.258Z,9.01
2023-03-31T04:52:51.259Z,9.05
2023-03-31T04:53:21.276Z,9.11
2023-03-31T04:53:51.259Z,9.17
2023-03-31T04:54:21.260Z,9.24
2023-03-31T04:54:51.258Z,9.36
2023-03-31T04:55:21.263Z,9.47
2023-03-31T04:55:51.261Z,9.47
2023-03-31T04:56:21.261Z,9.53
2023-03-31T04:56:51.310Z,9.63
2023-03-31T04:57:21.305Z,9.65
2023-03-31T04:57:51.272Z,9.7
2023-03-31T04:58:21.262Z,9.75
2023-03-31T04:58:51.259Z,9.85
2023-03-31T04:59:21.258Z,9.86
2023-03-31T04:59:51.262Z,9.92
2023-03-31T05:00:21.289Z,9.96
2023-03-31T05:00:51.298Z,9.91
2023-03-31T05:01:21.289Z,9.91
2023-03-31T05:01:51.267Z,9.78
2023-03-31T05:02:22.964Z,9.8
2023-03-31T05:02:52.273Z,9.85
2023-03-31T05:03:21.361Z,9.96
2023-03-31T05:03:51.322Z,10.05
2023-03-31T05:04:21.270Z,10.08
2023-03-31T05:04:51.265Z,10.05
2023-03-31T05:05:21.272Z,9.94
2023-03-31T05:05:51.274Z,9.92
2023-03-31T05:06:21.266Z,9.97
2023-03-31T05:06:51.270Z,9.93
2023-03-31T05:07:21.267Z,9.88
2023-03-31T05:07:51.281Z,9.89
2023-03-31T05:08:21.298Z,9.87
2023-03-31T05:08:51.271Z,9.82
2023-03-31T05:09:21.274Z,9.8
2023-03-31T05:09:51.281Z,9.78
2023-03-31T05:10:21.267Z,9.79
2023-03-31T05:10:51.280Z,9.78
2023-03-31T05:11:21.270Z,9.8
2023-03-31T05:11:51.272Z,9.72
2023-03-31T05:12:21.276Z,9.71
2023-03-31T05:12:51.279Z,9.7
2023-03-31T05:13:21.269Z,9.73
2023-03-31T05:13:51.273Z,9.7
2023-03-31T05:14:21.281Z,9.68
2023-03-31T05:14:51.271Z,9.71
2023-03-31T05:15:21.284Z,9.71
2023-03-31T05:15:51.275Z,9.63
2023-03-31T05:16:21.298Z,9.61
2023-03-31T05:16:51.299Z,9.51
2023-03-31T05:17:21.289Z,9.49
2023-03-31T05:17:51.310Z,9.46
2023-03-31T05:18:21.273Z,9.48
2023-03-31T05:18:51.273Z,9.4
2023-03-31T05:19:21.280Z,9.37
2023-03-31T05:19:51.276Z,9.38
2023-03-31T05:20:21.275Z,9.38
2023-03-31T05:20:51.279Z,9.41
2023-03-31T05:21:21.276Z,9.46
2023-03-31T05:21:51.273Z,9.53
2023-03-31T05:22:21.272Z,9.56
2023-03-31T05:22:51.272Z,9.56
2023-03-31T05:23:21.276Z,9.55
2023-03-31T05:23:51.283Z,9.52
2023-03-31T05:24:21.271Z,9.47
2023-03-31T05:24:51.272Z,9.47
2023-03-31T05:25:21.273Z,9.38
2023-03-31T05:25:51.288Z,9.32
2023-03-31T05:26:21.284Z,9.31
2023-03-31T05:26:51.276Z,9.31
2023-03-31T05:27:21.274Z,9.32
2023-03-31T05:27:51.283Z,9.27
2023-03-31T05:28:21.277Z,9.27
2023-03-31T05:28:51.276Z,9.27
2023-03-31T05:29:21.278Z,9.23
2023-03-31T05:29:51.279Z,9.2
2023-03-31T05:30:21.299Z,9.18
2023-03-31T05:30:51.286Z,9.13
2023-03-31T05:31:21.319Z,9.09
2023-03-31T05:31:51.348Z,9.09
2023-03-31T05:32:21.296Z,9.13
2023-03-31T05:32:51.360Z,9.11
2023-03-31T05:33:21.278Z,9.08
2023-03-31T05:33:51.276Z,9.01
2023-03-31T05:34:21.292Z,9
2023-03-31T05:34:52.234Z,9
2023-03-31T05:35:21.292Z,9.02
2023-03-31T05:35:51.318Z,9.08
2023-03-31T05:36:21.318Z,9.11
2023-03-31T05:36:51.285Z,9.17
2023-03-31T05:37:21.288Z,9.16
2023-03-31T05:37:51.300Z,9.15
2023-03-31T05:38:21.277Z,9.19
2023-03-31T05:38:51.276Z,9.22
2023-03-31T05:39:21.398Z,9.23
2023-03-31T05:39:51.276Z,9.24
2023-03-31T05:40:21.276Z,9.24
2023-03-31T05:40:51.279Z,9.17
2023-03-31T05:41:21.468Z,9.17
2023-03-31T05:41:51.291Z,9.2
2023-03-31T05:42:21.318Z,9.24
2023-03-31T05:42:51.284Z,9.29
2023-03-31T05:43:21.278Z,9.34
2023-03-31T05:43:51.282Z,9.35
2023-03-31T05:44:21.282Z,9.36
2023-03-31T05:44:51.279Z,9.36
2023-03-31T05:45:21.304Z,9.4
2023-03-31T05:45:51.337Z,9.4
2023-03-31T05:46:21.305Z,9.39
2023-03-31T05:46:51.312Z,9.37
2023-03-31T05:47:21.274Z,9.34
2023-03-31T05:47:51.311Z,9.34
2023-03-31T05:48:21.278Z,9.33
2023-03-31T05:48:51.283Z,9.39
2023-03-31T05:49:21.277Z,9.45
2023-03-31T05:49:51.275Z,9.5
2023-03-31T05:50:21.278Z,9.54
2023-03-31T05:50:51.279Z,9.57
2023-03-31T05:51:21.282Z,9.53
2023-03-31T05:51:51.280Z,9.52
2023-03-31T05:52:21.288Z,9.55
2023-03-31T05:52:51.275Z,9.59
2023-03-31T05:53:21.277Z,9.65
2023-03-31T05:53:51.287Z,9.72
2023-03-31T05:54:21.277Z,9.8
2023-03-31T05:54:51.280Z,9.85
2023-03-31T05:55:21.281Z,9.89
2023-03-31T05:55:51.283Z,9.93
2023-03-31T05:56:21.282Z,9.96
2023-03-31T05:56:51.342Z,9.95
2023-03-31T05:57:21.313Z,9.91
2023-03-31T05:57:51.286Z,9.9
2023-03-31T05:58:21.299Z,9.87
2023-03-31T05:58:51.280Z,9.84
2023-03-31T05:59:21.277Z,9.82
2023-03-31T05:59:51.277Z,9.8
2023-03-31T06:00:21.281Z,9.7
2023-03-31T06:00:51.314Z,9.66
2023-03-31T06:01:21.365Z,9.61
2023-03-31T06:01:51.409Z,9.54
2023-03-31T06:02:21.341Z,9.51
2023-03-31T06:02:51.371Z,9.52
2023-03-31T06:03:21.306Z,9.48
2023-03-31T06:03:51.325Z,9.37
2023-03-31T06:04:21.300Z,9.38
2023-03-31T06:04:51.283Z,9.38
2023-03-31T06:05:21.289Z,9.42
2023-03-31T06:05:51.279Z,9.46
2023-03-31T06:06:21.293Z,9.53
2023-03-31T06:06:51.286Z,9.62
2023-03-31T06:07:21.298Z,9.69
2023-03-31T06:07:51.279Z,9.73
2023-03-31T06:08:21.292Z,9.76
2023-03-31T06:08:51.282Z,9.74
2023-03-31T06:09:21.306Z,9.71
2023-03-31T06:09:51.280Z,9.68
2023-03-31T06:10:21.281Z,9.61
2023-03-31T06:10:51.290Z,9.57
2023-03-31T06:11:21.286Z,9.58
2023-03-31T06:11:51.281Z,9.63
2023-03-31T06:12:21.279Z,9.66
2023-03-31T06:12:51.283Z,9.69
2023-03-31T06:13:21.288Z,9.65
2023-03-31T06:13:51.288Z,9.54
2023-03-31T06:14:21.296Z,9.52
2023-03-31T06:14:51.283Z,9.51
2023-03-31T06:15:21.280Z,9.49
2023-03-31T06:15:51.345Z,9.45
2023-03-31T06:16:21.323Z,9.44
2023-03-31T06:16:51.287Z,9.54
2023-03-31T06:17:21.291Z,9.63
2023-03-31T06:17:51.294Z,9.63
2023-03-31T06:18:21.291Z,9.66
2023-03-31T06:18:51.301Z,9.67
2023-03-31T06:19:21.280Z,9.68
2023-03-31T06:19:51.284Z,9.69
2023-03-31T06:20:27.728Z,9.74
2023-03-31T06:20:52.353Z,9.86
2023-03-31T06:21:21.281Z,9.95
2023-03-31T06:21:51.311Z,10
2023-03-31T06:22:21.289Z,10
2023-03-31T06:22:51.280Z,10.05
2023-03-31T06:23:21.283Z,10.08
2023-03-31T06:23:51.282Z,10.17
2023-03-31T06:24:21.305Z,10.29
2023-03-31T06:24:51.288Z,10.36
2023-03-31T06:25:21.292Z,10.44
2023-03-31T06:25:52.064Z,10.48
2023-03-31T06:26:21.287Z,10.58
2023-03-31T06:26:53.475Z,10.73
2023-03-31T06:27:21.279Z,10.89
2023-03-31T06:27:51.287Z,10.97
2023-03-31T06:28:21.283Z,11.12
2023-03-31T06:28:51.282Z,11.28
2023-03-31T06:29:21.282Z,11.36
2023-03-31T06:29:51.283Z,11.39
2023-03-31T06:30:21.284Z,11.32
2023-03-31T06:30:51.279Z,11.18
2023-03-31T06:31:21.307Z,11.1
2023-03-31T06:31:51.336Z,10.97
2023-03-31T06:32:21.285Z,10.91
2023-03-31T06:32:51.336Z,10.87
2023-03-31T06:33:21.281Z,10.94
2023-03-31T06:33:51.303Z,10.96
2023-03-31T06:34:21.654Z,11.04
2023-03-31T06:34:51.281Z,11.15
2023-03-31T06:35:21.282Z,11.25
2023-03-31T06:35:51.298Z,11.24
2023-03-31T06:36:21.357Z,11.2
2023-03-31T06:36:51.284Z,11.15
2023-03-31T06:37:21.309Z,11.02
2023-03-31T06:37:51.280Z,10.91
2023-03-31T06:38:21.284Z,10.93
2023-03-31T06:38:51.376Z,10.93
2023-03-31T06:39:21.287Z,10.89
2023-03-31T06:39:51.296Z,10.86
2023-03-31T06:40:21.300Z,10.95